Time;durP1;ratioP1;P1;durP2;ratioP2;P2;SDS_P1;SDS_P2;PMS_P1;PMS_P2;Temp;Humidity;BMP_temperature;BMP_pressure;BME280_temperature;BME280_humidity;BME280_pressure;Samples;Min_cycle;Max_cycle;Signal;HPM_P1;HPM_P2
2022/05/20 00:00:07;;;;;;;39.33;16.95;;;;;;;7.65;68.23;100503.87;1712814;83;21093;-71
2022/05/20 00:02:33;;;;;;;48.83;18.23;;;;;;;7.64;68.28;100506.50;1713122;83;21037;-70
2022/05/20 00:05:00;;;;;;;45.58;19.57;;;;;;;7.61;68.20;100502.19;1713265;83;21025;-70
2022/05/20 00:07:26;;;;;;;46.37;18.95;;;;;;;7.60;68.68;100499.16;1712915;82;21135;-71
2022/05/20 00:09:54;;;;;;;44.18;19.07;;;;;;;7.58;68.98;100497.02;1712789;82;21974;-69
2022/05/20 00:12:21;;;;;;;43.80;19.45;;;;;;;7.56;69.02;100492.24;1712957;83;21385;-69
2022/05/20 00:14:49;;;;;;;39.23;16.93;;;;;;;7.56;69.50;100481.77;1712729;82;21097;-69
2022/05/20 00:17:15;;;;;;;44.90;18.02;;;;;;;7.56;70.52;100475.20;1712708;83;21038;-70
2022/05/20 00:19:42;;;;;;;48.92;18.27;;;;;;;7.58;71.00;100479.98;1713251;82;21058;-70
2022/05/20 00:22:08;;;;;;;42.73;17.12;;;;;;;7.59;71.03;100468.59;1713068;83;21657;-69
2022/05/20 00:25:45;;;;;;;41.88;17.90;;;;;;;7.61;71.04;100470.73;1712946;82;20998;-70
2022/05/20 00:27:04;;;;;;;41.35;17.32;;;;;;;7.67;71.68;100471.94;1711365;83;21022;-70
2022/05/20 00:29:31;;;;;;;35.58;16.25;;;;;;;7.73;71.31;100478.80;1712992;83;21050;-70
2022/05/20 00:31:59;;;;;;;35.13;15.50;;;;;;;7.77;71.10;100483.95;1712914;82;21136;-70
2022/05/20 00:34:26;;;;;;;34.75;16.37;;;;;;;7.84;70.85;100481.22;1713131;83;21250;-69
2022/05/20 00:36:52;;;;;;;40.80;16.93;;;;;;;7.90;71.01;100480.66;1712826;82;21124;-69
2022/05/20 00:39:19;;;;;;;36.10;12.65;;;;;;;7.94;71.37;100473.59;1713273;83;21093;-69
2022/05/20 00:41:45;;;;;;;29.23;13.30;;;;;;;7.99;71.46;100467.80;1712907;82;21061;-69
2022/05/20 00:44:12;;;;;;;25.60;11.10;;;;;;;8.04;70.37;100469.88;1713153;82;21562;-69
2022/05/20 00:46:39;;;;;;;30.23;15.53;;;;;;;8.10;70.05;100475.00;1712962;82;21158;-71
2022/05/20 00:49:10;;;;;;;33.30;15.35;;;;;;;8.17;69.40;100479.22;1712999;83;21081;-70
2022/05/20 00:51:50;;;;;;;32.83;14.40;;;;;;;8.24;69.70;100474.70;1712595;82;21541;-69
2022/05/20 00:54:26;;;;;;;30.12;13.20;;;;;;;8.32;70.56;100478.00;1713009;83;21097;-70
2022/05/20 00:57:07;;;;;;;35.35;13.85;;;;;;;8.38;70.30;100475.70;1712811;82;21069;-69
2022/05/20 00:59:36;;;;;;;32.70;14.70;;;;;;;8.42;69.97;100469.53;1712820;83;21082;-69
2022/05/20 01:02:07;;;;;;;24.80;11.75;;;;;;;8.47;69.67;100466.34;1712835;82;21054;-70
2022/05/20 01:04:34;;;;;;;;;;;;;;;8.51;69.68;100468.01;1715261;82;21065;-71
2022/05/20 01:07:01;;;;;;;24.95;11.25;;;;;;;8.58;69.97;100490.59;1712664;83;20194;-70
2022/05/20 01:09:27;;;;;;;27.77;12.90;;;;;;;8.59;70.21;100479.17;1712971;83;21096;-70
2022/05/20 01:11:55;;;;;;;30.12;12.20;;;;;;;8.63;70.52;100479.09;1702796;83;21217;-68
2022/05/20 01:14:25;;;;;;;31.12;13.18;;;;;;;8.66;70.64;100468.55;1697637;82;21054;-70
2022/05/20 01:16:52;;;;;;;24.35;11.63;;;;;;;8.67;70.79;100467.17;1678475;85;21060;-71
2022/05/20 01:19:40;;;;;;;26.42;12.23;;;;;;;8.69;70.78;100460.58;1678579;85;21152;-69
2022/05/20 01:22:09;;;;;;;26.12;11.73;;;;;;;8.72;70.80;100456.55;1678368;85;21120;-70
2022/05/20 01:24:36;;;;;;;29.42;12.30;;;;;;;8.75;70.00;100461.76;1657887;85;21294;-70
2022/05/20 01:27:05;;;;;;;28.45;12.63;;;;;;;8.77;69.15;100470.47;1678387;85;21048;-69
2022/05/20 01:29:32;;;;;;;24.55;12.58;;;;;;;8.79;69.15;100471.30;1678436;85;21071;-74
2022/05/20 01:31:58;;;;;;;33.35;13.20;;;;;;;8.80;69.06;100465.98;1678322;85;21077;-69
2022/05/20 01:34:25;;;;;;;28.80;11.97;;;;;;;8.81;69.73;100460.27;1678410;85;21554;-70
2022/05/20 01:36:52;;;;;;;27.32;12.37;;;;;;;8.80;69.61;100455.94;1678053;85;21655;-68
2022/05/20 01:39:18;;;;;;;28.32;12.10;;;;;;;8.83;69.62;100447.97;1677999;85;21575;-69
2022/05/20 01:41:53;;;;;;;29.27;12.13;;;;;;;8.85;70.08;100449.25;1678334;85;21022;-70
2022/05/20 01:44:34;;;;;;;26.12;10.85;;;;;;;8.87;69.84;100448.31;1678681;85;21101;-70
2022/05/20 01:47:15;;;;;;;23.95;10.95;;;;;;;8.89;69.51;100446.52;1678438;85;21044;-69
2022/05/20 01:50:13;;;;;;;23.80;10.80;;;;;;;8.93;69.05;100453.88;1678539;85;22240;-69
2022/05/20 01:53:05;;;;;;;27.58;12.20;;;;;;;8.96;69.05;100454.65;1678412;85;21463;-69
2022/05/20 01:55:59;;;;;;;29.60;12.30;;;;;;;8.99;69.56;100445.37;1678390;85;21084;-70
2022/05/20 01:58:31;;;;;;;23.50;10.70;;;;;;;9.01;70.02;100446.66;1678800;85;21061;-71
2022/05/20 02:01:01;;;;;;;27.32;11.60;;;;;;;9.03;70.05;100453.59;1678503;85;21128;-70
2022/05/20 02:03:45;;;;;;;28.27;12.82;;;;;;;9.03;69.97;100448.34;1678831;85;21881;-70
2022/05/20 02:06:29;;;;;;;30.80;12.85;;;;;;;9.04;70.34;100453.13;1678583;85;21081;-69
2022/05/20 02:09:08;;;;;;;30.02;13.45;;;;;;;9.05;71.00;100464.53;1685064;85;21068;-69
2022/05/20 02:11:49;;;;;;;30.10;14.03;;;;;;;8.99;71.26;100454.56;1685752;85;21052;-70
2022/05/20 02:14:21;;;;;;;31.85;12.40;;;;;;;8.98;71.60;100450.22;1707123;83;21617;-69
2022/05/20 02:17:07;;;;;;;26.65;12.40;;;;;;;9.00;71.74;100445.80;1719862;83;21213;-69
2022/05/20 02:20:05;;;;;;;21.62;10.38;;;;;;;9.02;72.18;100446.63;1720709;83;21061;-69
2022/05/20 02:22:37;;;;;;;26.90;10.60;;;;;;;9.07;71.96;100441.71;1720587;83;21037;-71
2022/05/20 02:25:05;;;;;;;21.17;10.75;;;;;;;9.13;70.97;100448.09;1720784;83;21058;-70
2022/05/20 02:27:40;;;;;;;27.15;10.88;;;;;;;9.18;69.70;100451.03;1720757;83;21121;-69
2022/05/20 02:30:14;;;;;;;28.80;11.30;;;;;;;9.24;69.28;100443.42;1720243;83;21237;-68
2022/05/20 02:32:49;;;;;;;25.05;10.68;;;;;;;9.31;69.42;100442.36;1720650;83;21053;-70
2022/05/20 02:35:16;;;;;;;22.77;11.75;;;;;;;9.38;69.26;100449.17;1720886;83;21049;-69
2022/05/20 02:37:42;;;;;;;29.48;12.63;;;;;;;9.45;70.45;100460.39;1720745;83;21085;-69
2022/05/20 02:40:12;;;;;;;27.30;12.55;;;;;;;9.48;71.32;100450.23;1720992;83;21514;-69
2022/05/20 02:42:39;;;;;;;35.58;14.03;;;;;;;9.53;71.45;100457.56;1720794;83;21265;-69
2022/05/20 02:45:07;;;;;;;27.15;11.95;;;;;;;9.59;72.47;100457.37;1721044;83;21624;-71
2022/05/20 02:47:34;;;;;;;34.75;12.73;;;;;;;9.62;72.84;100453.38;1720747;83;21034;-70
2022/05/20 02:50:03;;;;;;;34.90;13.35;;;;;;;9.67;72.79;100452.78;1720868;83;20998;-69
2022/05/20 02:52:30;;;;;;;24.50;10.93;;;;;;;9.71;72.71;100451.80;1720862;83;21562;-70
2022/05/20 02:54:56;;;;;;;29.05;13.30;;;;;;;9.78;71.45;100456.43;1721082;83;21097;-69
2022/05/20 02:57:23;;;;;;;25.77;11.83;;;;;;;9.83;71.16;100459.33;1720701;83;21117;-69
2022/05/20 03:05:20;;;;;;;27.22;12.58;;;;;;;9.97;72.94;100468.13;1721043;83;21081;-70
2022/05/20 03:07:47;;;;;;;24.02;11.28;;;;;;;10.00;73.56;100467.18;1718394;82;21342;-70
2022/05/20 03:10:15;;;;;;;28.42;12.30;;;;;;;10.02;74.15;100471.95;1713023;82;21523;-70
2022/05/20 03:12:43;;;;;;;24.12;12.07;;;;;;;10.06;74.18;100474.91;1713158;83;21054;-69
2022/05/20 03:15:13;;;;;;;31.12;11.88;;;;;;;10.12;75.52;100481.28;1679427;83;21151;-70
2022/05/20 03:17:39;;;;;;;30.12;10.93;;;;;;;10.14;76.65;100486.05;1678883;85;21093;-70
2022/05/20 03:20:10;;;;;;;21.05;10.45;;;;;;;10.17;76.52;100487.30;1678790;85;21574;-69
2022/05/20 03:22:37;;;;;;;22.17;9.90;;;;;;;10.20;77.28;100493.77;1678867;85;21109;-70
2022/05/20 03:25:05;;;;;;;21.35;10.03;;;;;;;10.22;77.72;100500.31;1646015;87;21546;-68
2022/05/20 03:27:32;;;;;;;21.82;10.65;;;;;;;10.26;77.82;100500.18;1678791;85;21121;-71
2022/05/20 03:29:59;;;;;;;33.98;13.90;;;;;;;10.31;78.56;100496.55;1678675;85;21101;-70
2022/05/20 03:32:31;;;;;;;40.33;15.55;;;;;;;10.34;77.88;100495.17;1678876;85;21500;-70
2022/05/20 03:34:57;;;;;;;44.33;16.93;;;;;;;10.37;77.00;100485.85;1677211;85;21122;-69
2022/05/20 03:37:24;;;;;;;34.63;14.78;;;;;;;10.34;77.29;100466.21;1678781;85;21640;-70
2022/05/20 03:39:55;;;;;;;31.75;12.78;;;;;;;10.48;76.98;100480.66;1678454;85;21228;-70
2022/05/20 03:42:23;;;;;;;37.88;13.15;;;;;;;10.54;74.94;100483.58;1678671;85;21100;-70
2022/05/20 03:44:49;;;;;;;30.60;12.47;;;;;;;10.61;73.32;100479.84;1678364;85;21229;-69
2022/05/20 03:47:16;;;;;;;25.23;10.15;;;;;;;10.66;73.28;100477.91;1678683;85;21081;-70
2022/05/20 03:49:42;;;;;;;24.55;9.95;;;;;;;10.73;74.36;100467.19;1678714;85;21096;-70
2022/05/20 03:52:11;;;;;;;18.82;9.85;;;;;;;10.77;73.81;100475.41;1645791;87;21097;-70
2022/05/20 03:54:38;;;;;;;21.33;9.35;;;;;;;10.81;74.38;100483.16;1645772;87;21061;-68
2022/05/20 03:57:06;;;;;;;27.20;10.50;;;;;;;10.86;74.28;100490.45;1645405;87;21365;-69
2022/05/20 03:59:36;;;;;;;20.92;10.30;;;;;;;10.90;74.79;100493.83;1678525;85;21125;-70
2022/05/20 04:02:04;;;;;;;21.10;10.20;;;;;;;10.93;75.71;100500.34;1678628;85;21121;-71
2022/05/20 04:04:36;;;;;;;24.15;10.80;;;;;;;10.97;77.04;100501.94;1678706;85;21093;-70
2022/05/20 04:07:07;;;;;;;23.47;10.32;;;;;;;11.00;77.64;100510.23;1678642;85;21124;-71
2022/05/20 04:09:35;;;;;;;21.73;10.72;;;;;;;11.00;78.96;100515.03;1678528;83;21550;-69
2022/05/20 04:12:06;;;;;;;24.87;10.35;;;;;;;10.99;80.15;100515.94;1678726;85;21121;-71
2022/05/20 04:14:33;;;;;;;26.50;10.38;;;;;;;10.96;80.75;100525.27;1703816;83;21541;-70
2022/05/20 04:17:00;;;;;;;24.25;10.23;;;;;;;10.94;80.58;100524.91;1713021;82;21593;-69
2022/05/20 04:19:29;;;;;;;19.77;9.80;;;;;;;10.94;80.33;100531.03;1713406;83;21352;-71
2022/05/20 04:21:59;;;;;;;21.05;9.78;;;;;;;10.95;80.21;100536.73;1713101;82;22194;-70
2022/05/20 04:24:26;;;;;;;18.55;9.95;;;;;;;10.97;79.94;100537.52;1713255;82;21049;-69
2022/05/20 04:26:52;;;;;;;21.73;10.20;;;;;;;11.02;80.29;100534.73;1712866;83;21046;-69
2022/05/20 04:29:19;;;;;;;23.90;10.05;;;;;;;11.06;80.02;100541.17;1713055;83;21010;-69
2022/05/20 04:31:48;;;;;;;28.25;9.90;;;;;;;11.12;80.21;100540.12;1712936;83;21111;-70
2022/05/20 04:34:15;;;;;;;20.27;8.25;;;;;;;11.16;80.95;100552.73;1712831;83;21546;-71
2022/05/20 04:36:44;;;;;;;23.67;9.48;;;;;;;11.22;81.11;100552.08;1712647;82;21093;-71
2022/05/20 04:39:10;;;;;;;27.48;10.15;;;;;;;11.24;80.29;100554.21;1712978;83;21057;-71
2022/05/20 04:46:57;;;;;;;38.50;17.32;;;;;;;11.23;84.45;100574.06;1712852;83;21144;-71
2022/05/20 04:49:29;;;;;;;33.85;14.53;;;;;;;11.17;84.03;100575.56;1713356;83;24717;-73
2022/05/20 04:51:56;;;;;;;36.15;13.95;;;;;;;11.08;83.92;100581.98;1712676;83;21142;-71
2022/05/20 04:57:08;;;;;;;36.25;14.23;;;;;;;10.93;83.80;100571.48;1712807;83;21093;-71
2022/05/20 04:59:38;;;;;;;28.85;12.88;;;;;;;10.88;85.08;100576.02;1712819;82;21227;-70
2022/05/20 05:02:05;;;;;;;35.08;13.53;;;;;;;10.77;85.92;100568.92;1712894;82;21046;-71
2022/05/20 05:04:33;;;;;;;38.55;14.73;;;;;;;10.66;87.20;100574.52;1712859;82;21022;-71
2022/05/20 05:07:00;;;;;;;35.90;15.08;;;;;;;10.59;88.08;100567.71;1712768;83;21029;-70
2022/05/20 05:09:27;;;;;;;35.25;15.00;;;;;;;10.56;89.08;100573.05;1712935;82;21078;-71
2022/05/20 05:11:54;;;;;;;39.98;15.25;;;;;;;10.53;90.00;100575.32;1712721;83;22200;-69
2022/05/20 05:14:20;;;;;;;36.93;15.20;;;;;;;10.55;90.90;100584.04;1691125;83;21069;-71
2022/05/20 05:16:47;;;;;;;38.53;15.23;;;;;;;10.58;91.64;100588.35;1678860;85;21538;-71
2022/05/20 05:19:15;;;;;;;35.17;15.68;;;;;;;10.57;94.74;100588.81;1678823;85;21034;-71
2022/05/20 05:21:42;;;;;;;34.92;16.73;;;;;;;10.50;95.67;100585.95;1678515;85;21058;-72
2022/05/20 05:24:09;;;;;;;37.60;17.15;;;;;;;10.46;96.71;100593.53;1678652;85;21315;-71
2022/05/20 05:26:37;;;;;;;49.15;20.40;;;;;;;10.42;98.08;100591.89;1678490;85;22235;-70
2022/05/20 05:29:04;;;;;;;52.80;22.37;;;;;;;10.39;99.20;100591.98;1678544;85;21389;-71
2022/05/20 05:31:31;;;;;;;53.83;23.73;;;;;;;10.37;100.00;100592.48;1678593;85;21007;-70
2022/05/20 05:33:57;;;;;;;61.00;24.80;;;;;;;10.35;100.00;100588.56;1678737;85;22344;-69
2022/05/20 05:36:25;;;;;;;53.58;24.80;;;;;;;10.34;100.00;100587.31;1678437;85;21562;-69
2022/05/20 05:38:52;;;;;;;60.78;27.30;;;;;;;10.33;100.00;100576.35;1678544;85;21085;-70
2022/05/20 05:41:19;;;;;;;57.93;27.87;;;;;;;10.35;100.00;100582.44;1678675;85;21178;-70
2022/05/20 05:43:46;;;;;;;61.23;28.10;;;;;;;10.37;100.00;100580.63;1678684;85;21074;-71
2022/05/20 05:46:13;;;;;;;62.25;28.45;;;;;;;10.40;100.00;100572.63;1678503;85;21093;-70
2022/05/20 05:48:41;;;;;;;58.85;27.55;;;;;;;10.43;100.00;100564.66;1678566;85;22171;-71
2022/05/20 05:51:08;;;;;;;63.42;27.02;;;;;;;10.52;100.00;100573.61;1678454;85;21105;-71
2022/05/20 05:53:35;;;;;;;51.02;25.62;;;;;;;10.60;100.00;100562.37;1678667;85;21042;-72
2022/05/20 05:56:04;;;;;;;55.58;24.25;;;;;;;10.71;100.00;100549.74;1678497;85;21063;-71
2022/05/20 05:58:31;;;;;;;45.58;22.62;;;;;;;10.91;100.00;100549.13;1678495;85;21398;-71
2022/05/20 06:00:58;;;;;;;43.17;21.85;;;;;;;11.09;100.00;100542.41;1678335;85;21905;-70
2022/05/20 06:03:24;;;;;;;47.93;22.07;;;;;;;11.28;100.00;100531.26;1678507;85;21140;-70
2022/05/20 06:05:51;;;;;;;46.08;20.72;;;;;;;11.46;100.00;100534.59;1678181;85;21085;-70
2022/05/20 06:08:18;;;;;;;37.38;17.35;;;;;;;11.63;100.00;100531.83;1677986;84;21061;-72
2022/05/20 06:10:46;;;;;;;45.95;21.55;;;;;;;11.81;98.98;100531.64;1678429;85;21045;-70
2022/05/20 06:13:23;;;;;;;39.38;19.20;;;;;;;11.95;96.32;100526.28;1684352;83;21220;-70
2022/05/20 06:15:55;;;;;;;44.23;20.55;;;;;;;12.10;97.25;100523.99;1712722;82;21050;-70
2022/05/20 06:18:22;;;;;;;47.08;21.27;;;;;;;12.19;100.00;100526.29;1713184;83;22196;-70
2022/05/20 06:23:04;;;;;;;51.60;21.57;;;;;;;12.23;100.00;100511.20;1796578;79;22734;-70
2022/05/20 06:25:30;;;;;;;43.02;21.87;;;;;;;12.20;100.00;100507.38;1756483;81;21029;-71
2022/05/20 06:28:09;;;;;;;51.10;22.50;;;;;;;12.30;100.00;100516.19;1756074;81;21624;-70
2022/05/20 06:30:36;;;;;;;42.90;21.73;;;;;;;12.45;100.00;100517.40;1756590;81;21084;-70
2022/05/20 06:33:03;;;;;;;43.15;21.37;;;;;;;12.61;100.00;100516.34;1756332;81;21055;-71
2022/05/20 06:41:00;;;;;;;47.00;20.60;;;;;;;12.87;100.00;100507.84;1748170;82;21202;-71
2022/05/20 06:43:27;;;;;;;47.98;21.20;;;;;;;12.91;98.81;100512.94;1747943;82;21073;-72
2022/05/20 06:45:58;;;;;;;47.60;22.75;;;;;;;13.08;97.98;100512.23;1747905;82;21252;-71
2022/05/20 06:48:25;;;;;;;42.67;20.55;;;;;;;13.21;98.88;100512.13;1748263;82;21561;-69
2022/05/20 06:50:52;;;;;;;43.80;21.10;;;;;;;13.39;97.74;100521.59;1681189;82;21084;-70
2022/05/20 06:53:18;;;;;;;54.05;23.32;;;;;;;13.59;95.79;100524.20;1748377;82;21091;-70
2022/05/20 06:55:45;;;;;;;44.70;21.85;;;;;;;13.71;96.29;100516.66;1748074;82;21077;-71
2022/05/20 06:58:12;;;;;;;43.30;20.85;;;;;;;13.91;96.22;100511.34;1748069;82;21573;-72
2022/05/20 07:00:39;;;;;;;43.05;20.23;;;;;;;14.22;95.73;100511.30;1747950;82;20983;-71
2022/05/20 07:03:06;;;;;;;49.30;21.20;;;;;;;14.59;94.31;100508.29;1748208;82;21057;-70
2022/05/20 07:05:34;;;;;;;40.50;20.32;;;;;;;14.95;93.73;100502.12;1747972;82;21281;-71
2022/05/20 07:08:01;;;;;;;42.98;20.00;;;;;;;15.34;92.88;100495.75;1747865;82;21034;-70
2022/05/20 07:10:28;;;;;;;34.73;18.45;;;;;;;15.67;90.11;100499.81;1748114;82;21049;-70
2022/05/20 07:12:54;;;;;;;40.95;18.10;;;;;;;15.98;87.37;100492.42;1747987;81;21093;-72
2022/05/20 07:15:20;;;;;;;31.12;14.85;;;;;;;16.18;85.95;100498.47;1748109;82;21014;-70
2022/05/20 07:17:48;;;;;;;28.98;14.18;;;;;;;16.34;81.76;100500.67;1748373;82;21280;-69
2022/05/20 07:20:14;;;;;;;25.95;13.72;;;;;;;16.43;80.01;100498.83;1747893;82;21033;-71
2022/05/20 07:22:41;;;;;;;27.95;12.63;;;;;;;16.49;79.27;100501.61;1748491;81;21454;-69
2022/05/20 07:25:09;;;;;;;22.82;12.05;;;;;;;16.54;78.02;100499.09;1748784;82;21100;-72
2022/05/20 07:27:36;;;;;;;25.62;11.83;;;;;;;16.63;78.75;100498.17;1748653;81;21088;-71
2022/05/20 07:30:03;;;;;;;25.75;12.55;;;;;;;16.75;78.70;100501.49;1749012;82;21575;-70
2022/05/20 07:32:30;;;;;;;26.52;12.65;;;;;;;16.82;76.60;100502.89;1748368;82;21084;-71
2022/05/20 07:34:56;;;;;;;27.93;13.18;;;;;;;16.84;77.73;100501.00;1748247;82;21050;-71
2022/05/20 07:37:23;;;;;;;25.05;13.28;;;;;;;16.73;78.05;100499.39;1748252;82;21096;-70
2022/05/20 07:39:50;;;;;;;24.75;12.13;;;;;;;16.63;80.54;100495.52;1748175;82;22191;-69
2022/05/20 07:42:16;;;;;;;39.92;12.73;;;;;;;16.61;79.59;100493.41;1747959;82;21597;-70
2022/05/20 07:44:43;;;;;;;21.37;10.50;;;;;;;16.55;81.45;100499.47;1748412;81;21585;-69
2022/05/20 07:47:09;;;;;;;21.42;10.82;;;;;;;16.51;80.93;100507.70;1748110;82;21014;-70
2022/05/20 07:49:36;;;;;;;17.55;10.43;;;;;;;16.49;81.86;100511.76;1748497;81;21025;-70
2022/05/20 07:52:06;;;;;;;23.10;11.38;;;;;;;16.46;84.15;100522.58;1748242;82;22058;-70
2022/05/20 07:54:36;;;;;;;21.02;10.72;;;;;;;16.45;83.21;100515.56;1748327;81;21233;-71
2022/05/20 07:57:07;;;;;;;21.62;11.73;;;;;;;16.51;83.64;100515.20;1748345;81;21069;-70
2022/05/20 07:59:45;;;;;;;;;;;;;;;16.47;83.17;100508.36;1751135;82;21100;-70
2022/05/20 08:02:14;;;;;;;26.55;11.33;;;;;;;16.44;82.04;100507.17;1748205;82;20182;-69
2022/05/20 08:05:01;;;;;;;24.07;11.40;;;;;;;16.49;82.42;100501.13;1748508;82;21053;-69
2022/05/20 08:07:32;;;;;;;19.48;10.85;;;;;;;16.56;82.23;100497.21;1748128;81;21046;-69
2022/05/20 08:10:02;;;;;;;18.73;9.98;;;;;;;16.62;78.67;100492.48;1748240;82;21045;-70
2022/05/20 08:12:28;;;;;;;22.27;10.03;;;;;;;16.63;78.46;100498.17;1747656;82;21046;-70
2022/05/20 08:14:56;;;;;;;19.98;8.55;;;;;;;16.69;78.21;100493.38;1722034;81;21076;-69
2022/05/20 08:17:27;;;;;;;19.55;9.70;;;;;;;16.80;76.80;100495.94;1718167;83;21049;-70
2022/05/20 08:19:54;;;;;;;17.67;8.70;;;;;;;16.89;75.94;100490.95;1718855;83;21117;-71
2022/05/20 08:22:25;;;;;;;21.75;10.38;;;;;;;17.04;73.94;100489.67;1718207;83;21033;-70
2022/05/20 08:24:52;;;;;;;;;;;;;;;17.18;74.40;100490.59;1720993;83;21049;-70
2022/05/20 08:27:21;;;;;;;24.20;12.00;;;;;;;17.29;75.05;100478.44;1718262;83;20283;-71
2022/05/20 08:29:49;;;;;;;34.45;13.32;;;;;;;17.25;76.01;100476.42;1718317;82;21088;-70
2022/05/20 08:32:15;;;;;;;27.45;11.75;;;;;;;17.31;76.04;100472.07;1718392;83;21848;-70
2022/05/20 08:34:44;;;;;;;30.17;13.05;;;;;;;17.47;70.93;100475.16;1718318;83;21545;-71
2022/05/20 08:37:12;;;;;;;31.65;14.35;;;;;;;17.48;70.13;100472.86;1718218;83;21056;-71
2022/05/20 08:39:40;;;;;;;21.05;11.53;;;;;;;17.52;68.92;100473.06;1718237;83;21213;-70
2022/05/20 08:42:21;;;;;;;31.73;13.72;;;;;;;17.61;67.04;100470.70;1718241;83;21065;-70
2022/05/20 08:44:49;;;;;;;27.10;12.70;;;;;;;17.68;65.44;100465.00;1718525;83;21779;-69
2022/05/20 08:47:30;;;;;;;26.57;13.18;;;;;;;17.61;66.07;100457.86;1718431;83;21265;-70
2022/05/20 08:49:59;;;;;;;25.35;12.45;;;;;;;17.57;65.83;100458.99;1718223;83;21675;-70
2022/05/20 08:52:27;;;;;;;27.17;14.30;;;;;;;17.50;66.49;100456.32;1718589;83;21092;-70
2022/05/20 08:54:53;;;;;;;29.65;15.35;;;;;;;17.42;67.99;100449.29;1718299;83;21085;-71
2022/05/20 08:57:28;;;;;;;28.07;15.13;;;;;;;17.31;69.21;100448.59;1718205;83;21173;-69
2022/05/20 08:59:55;;;;;;;27.82;14.60;;;;;;;17.29;71.29;100446.02;1718133;83;21033;-70
2022/05/20 09:02:22;;;;;;;33.10;15.32;;;;;;;17.39;70.10;100444.53;1718277;83;21041;-70
2022/05/20 09:04:50;;;;;;;28.17;14.40;;;;;;;17.49;70.09;100434.17;1718180;83;21037;-72
2022/05/20 09:07:19;;;;;;;28.27;14.35;;;;;;;17.56;68.48;100435.98;1718170;83;21068;-70
2022/05/20 09:09:55;;;;;;;28.62;13.80;;;;;;;17.68;66.79;100433.89;1718306;83;21065;-70
2022/05/20 09:12:37;;;;;;;51.73;14.10;;;;;;;17.80;63.72;100430.45;1718158;83;21096;-70
2022/05/20 09:18:09;;;;;;;22.97;12.03;;;;;;;18.23;59.40;100421.11;1748274;81;21089;-71
2022/05/20 09:20:51;;;;;;;24.65;11.53;;;;;;;18.69;58.88;100424.42;1747353;82;21017;-70
2022/05/20 09:23:20;;;;;;;26.40;10.30;;;;;;;19.03;55.81;100414.55;1747743;81;21702;-69
2022/05/20 09:26:04;;;;;;;35.45;12.65;;;;;;;19.45;54.68;100408.55;1747978;82;21034;-71
2022/05/20 09:28:47;;;;;;;22.93;10.10;;;;;;;19.86;53.33;100411.50;1748286;81;21493;-68
2022/05/20 09:31:37;;;;;;;20.70;9.75;;;;;;;20.26;50.71;100401.92;1748013;82;21049;-70
2022/05/20 09:34:21;;;;;;;18.98;9.98;;;;;;;20.67;48.79;100404.73;1748473;82;21078;-70
2022/05/20 09:37:02;;;;;;;19.82;8.00;;;;;;;21.13;47.88;100398.55;1747907;82;21245;-70
2022/05/20 09:39:37;;;;;;;17.05;6.70;;;;;;;21.67;45.49;100401.58;1747947;81;21061;-69
2022/05/20 09:42:17;;;;;;;18.12;6.22;;;;;;;22.24;43.21;100389.85;1747941;82;21028;-70
2022/05/20 09:44:47;;;;;;;16.02;6.40;;;;;;;22.73;41.22;100374.19;1748473;81;21050;-70
2022/05/20 09:47:53;;;;;;;16.50;6.72;;;;;;;23.10;39.74;100373.78;1747557;82;21021;-70
2022/05/20 09:50:38;;;;;;;13.58;5.22;;;;;;;23.34;39.40;100368.14;1748232;82;21104;-70
2022/05/20 09:53:05;;;;;;;114.40;13.80;;;;;;;23.56;38.04;100372.00;1747195;82;21029;-70
2022/05/20 09:55:40;;;;;;;11.43;3.70;;;;;;;23.73;36.43;100364.28;1748309;82;20988;-72
2022/05/20 09:58:30;;;;;;;9.48;3.75;;;;;;;23.95;33.95;100361.42;1748538;81;21159;-71
2022/05/20 10:01:02;;;;;;;15.23;4.28;;;;;;;24.39;33.79;100360.58;1748236;81;21029;-70
2022/05/20 10:03:42;;;;;;;9.93;5.10;;;;;;;24.96;33.45;100361.21;1748112;82;21077;-72
2022/05/20 10:06:30;;;;;;;9.95;4.30;;;;;;;25.18;33.27;100352.84;1748134;81;21065;-71
2022/05/20 10:09:35;;;;;;;7.28;4.17;;;;;;;25.45;32.13;100353.40;1748446;81;21056;-72
2022/05/20 10:12:28;;;;;;;38.38;5.95;;;;;;;25.93;31.75;100359.61;1748076;81;21002;-70
2022/05/20 10:15:17;;;;;;;8.70;2.72;;;;;;;26.16;28.24;100351.94;1722535;81;21041;-70
2022/05/20 10:18:05;;;;;;;7.08;3.10;;;;;;;26.01;28.50;100347.55;1718223;83;21756;-71
2022/05/20 10:21:05;;;;;;;8.33;2.98;;;;;;;26.05;28.57;100346.75;1718811;83;21032;-69
2022/05/20 10:24:09;;;;;;;5.50;2.20;;;;;;;26.22;29.10;100336.97;1709108;83;21104;-70
2022/05/20 10:26:48;;;;;;;7.03;2.67;;;;;;;26.37;27.44;100337.64;1704700;83;21038;-71
2022/05/20 10:32:36;;;;;;;7.53;2.62;;;;;;;26.40;26.57;100318.92;1705152;84;21217;-70
2022/05/20 10:35:10;;;;;;;5.00;2.60;;;;;;;26.28;27.37;100320.17;1704799;84;21030;-71
2022/05/20 10:38:08;;;;;;;8.45;2.37;;;;;;;26.19;27.59;100316.53;1703847;83;21129;-70
2022/05/20 10:41:02;;;;;;;4.83;2.27;;;;;;;26.34;28.22;100306.03;1704623;84;21069;-71
2022/05/20 10:48:34;;;;;;;6.80;3.22;;;;;;;26.56;27.06;100301.55;1704648;84;21537;-70
2022/05/20 10:49:06;;;;;;;4.55;2.00;;;;;;;27.11;26.12;100295.02;1704942;84;21054;-70
2022/05/20 10:52:00;;;;;;;6.17;1.75;;;;;;;27.41;26.02;100281.51;1704895;83;21028;-72
2022/05/20 10:54:59;;;;;;;10.63;6.08;;;;;;;27.75;26.10;100268.45;1704773;84;21050;-71
2022/05/20 10:57:37;;;;;;;12.35;6.50;;;;;;;27.94;24.65;100274.62;1704763;84;21070;-70
2022/05/20 11:00:12;;;;;;;7.05;3.35;;;;;;;27.29;25.37;100273.35;1704960;83;21196;-70
2022/05/20 11:03:04;;;;;;;9.65;3.52;;;;;;;26.98;25.54;100264.34;1704558;84;21055;-70
2022/05/20 11:05:56;;;;;;;7.72;3.08;;;;;;;26.69;26.67;100262.50;1704627;83;21030;-70
2022/05/20 11:08:48;;;;;;;15.80;4.10;;;;;;;26.32;26.00;100251.38;1704529;83;21124;-70
2022/05/20 11:11:59;;;;;;;4.78;2.65;;;;;;;26.22;27.13;100244.69;1705165;83;21082;-71
2022/05/20 11:15:04;;;;;;;6.87;2.80;;;;;;;26.31;26.53;100236.16;1724793;82;21108;-69
2022/05/20 11:17:57;;;;;;;6.62;2.92;;;;;;;26.33;26.25;100229.60;1734435;81;21003;-70
2022/05/20 11:20:57;;;;;;;6.75;2.55;;;;;;;25.83;26.08;100224.72;1697353;82;21100;-71
2022/05/20 11:24:01;;;;;;;6.65;2.70;;;;;;;25.58;25.48;100229.00;1740841;81;21025;-71
2022/05/20 11:26:45;;;;;;;5.67;2.47;;;;;;;25.78;25.82;100218.11;1748339;82;21116;-71
2022/05/20 11:29:37;;;;;;;7.25;2.72;;;;;;;26.22;24.49;100207.41;1713517;82;21114;-70
2022/05/20 11:32:11;;;;;;;4.45;2.75;;;;;;;26.61;24.23;100207.05;1749172;81;21128;-71
2022/05/20 11:35:08;;;;;;;6.55;2.70;;;;;;;26.63;23.97;100195.59;1748517;82;21085;-71
2022/05/20 11:38:07;;;;;;;9.80;2.72;;;;;;;26.42;24.78;100195.42;1748062;81;21013;-71
2022/05/20 11:41:02;;;;;;;3.20;2.08;;;;;;;26.03;25.69;100194.44;1747971;82;21123;-70
2022/05/20 11:44:00;;;;;;;4.25;2.65;;;;;;;25.70;26.03;100192.75;1748348;82;21078;-71
2022/05/20 11:47:04;;;;;;;5.90;2.85;;;;;;;25.61;26.66;100193.67;1748703;81;21552;-71
2022/05/20 11:49:47;;;;;;;4.80;2.58;;;;;;;25.33;26.07;100184.27;1747346;82;21014;-74
2022/05/20 11:52:37;;;;;;;5.62;2.55;;;;;;;24.95;26.30;100179.87;1748252;82;22249;-71
2022/05/20 11:55:21;;;;;;;7.92;2.72;;;;;;;24.83;26.70;100181.91;1748295;81;21034;-71
2022/05/20 11:57:54;;;;;;;8.25;2.52;;;;;;;24.98;26.58;100178.22;1748489;82;21785;-71
2022/05/20 12:00:21;;;;;;;9.10;2.90;;;;;;;25.21;26.28;100170.62;1747935;81;21169;-71
2022/05/20 12:03:13;;;;;;;6.55;2.85;;;;;;;25.47;25.87;100156.45;1748329;82;21100;-71
2022/05/20 12:05:44;;;;;;;6.03;2.80;;;;;;;25.55;26.20;100147.08;1747918;82;21096;-73
2022/05/20 12:08:44;;;;;;;;;;;;;;;25.65;26.01;100147.88;1751063;82;21073;-71
2022/05/20 12:11:33;;;;;;;6.72;3.05;;;;;;;25.85;25.53;100149.05;1748382;82;21262;-71